createdAt,value
2022-09-11T01:21:39.397Z,5.10
2022-09-11T01:24:16.871Z,5.17
2022-09-11T01:26:54.073Z,5.47
2022-09-11T01:29:27.111Z,6.10
2022-09-11T01:32:10.337Z,5.10
2022-09-11T01:34:40.258Z,4.97
2022-09-11T01:40:21.031Z,4.80
2022-09-11T01:42:50.539Z,5.43
2022-09-11T01:45:19.428Z,4.87
2022-09-11T01:47:48.047Z,4.47
2022-09-11T01:50:17.649Z,5.70
2022-09-11T01:53:05.660Z,5.23
2022-09-11T01:55:35.248Z,5.50
2022-09-11T01:58:04.195Z,5.23
2022-09-11T02:00:34.429Z,6.40
2022-09-11T02:09:42.760Z,6.07
2022-09-11T02:12:11.959Z,6.77
2022-09-11T02:14:40.236Z,6.70
2022-09-11T02:17:15.120Z,7.23
2022-09-11T02:19:42.464Z,6.77
2022-09-11T02:22:09.865Z,7.53
2022-09-11T02:24:38.210Z,7.17
2022-09-11T02:27:06.752Z,7.63
2022-09-11T02:29:34.367Z,7.50
2022-09-11T02:32:02.676Z,7.23
2022-09-11T02:34:33.190Z,7.60
2022-09-11T02:37:20.390Z,6.60
2022-09-11T02:40:10.675Z,7.33
2022-09-11T02:42:48.688Z,6.10
2022-09-11T02:45:20.762Z,7.30
2022-09-11T02:47:54.642Z,7.73
2022-09-11T02:50:29.147Z,8.47
2022-09-11T02:52:58.791Z,7.07
2022-09-11T02:58:23.227Z,8.50
2022-09-11T03:00:51.895Z,8.47
2022-09-11T03:03:19.364Z,9.27
2022-09-11T03:05:57.632Z,8.27
2022-09-11T03:08:40.074Z,9.00
2022-09-11T03:11:19.968Z,9.33
2022-09-11T03:13:49.447Z,8.80
2022-09-11T03:16:17.522Z,8.10
2022-09-11T03:18:45.227Z,8.33
2022-09-11T03:21:14.074Z,8.30
2022-09-11T03:23:41.822Z,8.93
2022-09-11T03:28:36.533Z,9.30
2022-09-11T03:31:07.359Z,8.97
2022-09-11T03:33:34.761Z,9.70
2022-09-11T03:36:02.099Z,8.60
2022-09-11T03:38:30.652Z,9.03
2022-09-11T03:41:04.369Z,8.53
2022-09-11T03:46:40.182Z,9.17
2022-09-11T03:49:09.349Z,8.00
2022-09-11T03:51:36.736Z,8.73
2022-09-11T03:54:05.430Z,8.67
2022-09-11T03:56:38.143Z,8.60
2022-09-11T03:59:06.352Z,8.17
2022-09-11T04:01:35.807Z,8.93
2022-09-11T04:04:03.161Z,8.20
2022-09-11T04:06:35.288Z,8.57
2022-09-11T04:09:05.527Z,9.00
2022-09-11T04:11:37.184Z,8.63
2022-09-11T04:14:06.451Z,8.83
2022-09-11T04:16:33.871Z,8.17
2022-09-11T04:19:01.598Z,8.20
2022-09-11T04:21:53.936Z,8.80
2022-09-11T04:27:59.134Z,8.37
2022-09-11T04:30:26.876Z,8.37
2022-09-11T04:32:54.153Z,8.70
2022-09-11T04:35:21.967Z,8.00
2022-09-11T04:37:55.035Z,7.30
2022-09-11T05:57:54.006Z,7.17
2022-09-11T06:00:22.135Z,7.60
2022-09-11T06:02:53.775Z,7.57
2022-09-11T06:05:22.784Z,9.03
2022-09-11T06:07:50.135Z,9.03
2022-09-11T06:10:17.486Z,9.10
2022-09-11T06:12:44.679Z,9.40
2022-09-11T06:15:30.103Z,9.00
2022-09-11T06:18:00.574Z,10.67
2022-09-11T06:20:27.847Z,10.07
2022-09-11T06:22:55.298Z,11.87
2022-09-11T06:25:25.037Z,9.43
2022-09-11T06:27:52.223Z,8.87
2022-09-11T06:30:20.828Z,10.10
2022-09-11T06:32:49.015Z,9.60
2022-09-11T06:35:16.480Z,11.27
2022-09-11T06:37:43.766Z,10.23
2022-09-11T06:40:11.641Z,11.07
2022-09-11T06:42:39.332Z,10.90
2022-09-11T06:45:07.946Z,11.57
2022-09-11T06:47:36.664Z,12.40
2022-09-11T06:50:08.763Z,12.03
2022-09-11T06:53:01.511Z,13.20
2022-09-11T06:55:31.106Z,12.63
2022-09-11T06:58:05.400Z,12.27
2022-09-11T07:00:33.738Z,13.00
2022-09-11T07:03:03.672Z,11.40
2022-09-11T07:05:31.243Z,5.10
2022-09-11T07:08:00.856Z,8.93
2022-09-11T07:10:33.323Z,4.37
2022-09-11T07:13:02.138Z,7.20
2022-09-11T07:15:30.807Z,8.30
2022-09-11T07:17:58.434Z,11.23
2022-09-11T07:20:27.322Z,10.63
2022-09-11T07:22:54.829Z,10.33
2022-09-11T07:25:22.467Z,7.73
2022-09-11T07:27:49.846Z,5.50
2022-09-11T07:30:17.281Z,4.73
2022-09-11T07:32:48.237Z,4.87
2022-09-11T07:35:15.604Z,4.90
2022-09-11T07:37:48.923Z,7.50
2022-09-11T07:40:18.248Z,6.77
2022-09-11T07:42:46.470Z,6.53
2022-09-11T07:45:23.100Z,7.07
2022-09-11T07:47:51.366Z,9.30
2022-09-11T07:50:19.451Z,5.57
2022-09-11T07:52:48.158Z,5.97
2022-09-11T07:55:15.980Z,5.40
2022-09-11T07:57:44.112Z,3.67
2022-09-11T08:00:12.146Z,3.73
2022-09-11T08:02:48.368Z,3.43
2022-09-11T08:05:19.756Z,4.13
2022-09-11T08:07:48.603Z,4.30
2022-09-11T08:10:27.315Z,3.67
2022-09-11T08:12:59.642Z,3.20
2022-09-11T08:15:30.504Z,3.83
2022-09-11T08:17:58.074Z,3.17
2022-09-11T08:20:34.451Z,3.90
2022-09-11T08:23:03.268Z,4.70
2022-09-11T08:25:30.505Z,3.20
2022-09-11T08:27:59.561Z,3.90
2022-09-11T08:30:27.189Z,3.17
2022-09-11T08:32:54.460Z,2.47
2022-09-11T08:35:21.838Z,3.60
2022-09-11T10:41:10.982Z,2.05
2022-09-11T10:43:43.938Z,2.15
2022-09-11T10:46:22.706Z,2.35
2022-09-11T10:48:53.488Z,2.15
2022-09-11T10:51:20.936Z,1.92
2022-09-11T10:53:53.826Z,2.10
2022-09-11T10:56:22.395Z,2.22
2022-09-11T10:58:54.826Z,2.60
2022-09-11T11:01:22.498Z,2.10
2022-09-11T11:03:49.774Z,1.90
2022-09-11T11:06:23.345Z,1.85
2022-09-11T11:09:01.423Z,1.50
2022-09-11T11:11:38.594Z,1.65
2022-09-11T11:14:13.906Z,1.60
2022-09-11T11:16:46.407Z,1.77
2022-09-11T11:19:22.684Z,1.83
2022-09-11T11:21:54.879Z,1.70
2022-09-11T11:24:29.320Z,1.70
2022-09-11T11:27:04.425Z,2.05
2022-09-11T11:29:43.211Z,2.40
2022-09-11T11:49:36.930Z,1.80
2022-09-11T11:52:07.013Z,2.38
2022-09-11T11:54:38.377Z,2.22
2022-09-11T11:57:10.080Z,1.88
2022-09-11T11:59:59.701Z,1.90
2022-09-11T12:02:29.669Z,1.70
2022-09-11T12:05:00.858Z,1.90
2022-09-11T12:07:29.946Z,2.05
2022-09-11T12:09:58.020Z,1.58
2022-09-11T12:12:26.641Z,1.77
2022-09-11T12:14:55.104Z,1.95
2022-09-11T12:17:25.958Z,1.88
2022-09-11T12:20:12.146Z,1.80
2022-09-11T12:22:42.390Z,1.50
2022-09-11T12:25:24.556Z,1.80
2022-09-11T12:28:09.165Z,2.08
2022-09-11T12:30:51.314Z,2.10
2022-09-11T12:33:33.402Z,1.85
2022-09-11T12:36:00.682Z,1.95
2022-09-11T12:38:32.227Z,1.98
2022-09-11T12:41:00.314Z,1.60
2022-09-11T12:43:29.516Z,1.63
2022-09-11T12:45:56.831Z,2.08
2022-09-11T12:48:25.558Z,1.70
2022-09-11T12:50:54.470Z,1.52
2022-09-11T12:53:23.694Z,1.80
2022-09-11T12:55:54.228Z,1.83
2022-09-11T12:58:24.948Z,1.70
2022-09-11T13:01:01.280Z,1.60
2022-09-11T13:03:29.419Z,1.67
2022-09-11T13:05:58.822Z,1.95
2022-09-11T13:08:27.892Z,1.98
2022-09-11T13:11:16.951Z,1.60
2022-09-11T13:13:44.467Z,2.10
2022-09-11T13:16:20.064Z,2.25
2022-09-11T13:18:47.355Z,2.33
2022-09-11T13:21:15.602Z,2.45
2022-09-11T13:23:45.390Z,1.95
2022-09-11T13:26:18.923Z,2.72
2022-09-11T13:28:47.749Z,1.80
2022-09-11T13:31:17.175Z,2.58
2022-09-11T13:33:48.188Z,2.05
2022-09-11T13:36:16.367Z,1.92
2022-09-11T13:38:44.106Z,1.98
2022-09-11T13:41:14.773Z,1.90
2022-09-11T13:43:44.939Z,2.30
2022-09-11T13:46:18.920Z,1.85
2022-09-11T13:48:47.380Z,2.13
2022-09-11T13:51:15.767Z,1.52
2022-09-11T13:53:44.405Z,1.88
2022-09-11T13:56:17.141Z,2.00
2022-09-11T13:58:48.348Z,2.00
2022-09-11T14:01:19.067Z,1.80
2022-09-11T14:03:47.722Z,1.80
2022-09-11T14:06:19.459Z,2.25
2022-09-11T14:08:50.894Z,2.28
2022-09-11T14:11:22.693Z,1.85
2022-09-11T14:13:53.493Z,2.35
2022-09-11T14:16:23.309Z,1.90
2022-09-11T14:18:51.615Z,2.10
2022-09-11T14:21:19.780Z,1.90
2022-09-11T14:23:50.694Z,1.83
2022-09-11T14:26:19.228Z,1.85
2022-09-11T14:29:02.710Z,2.05
2022-09-11T14:31:34.585Z,1.67
2022-09-11T14:34:17.074Z,2.00
2022-09-11T14:36:45.873Z,1.50
2022-09-11T14:39:35.151Z,1.38
2022-09-11T14:42:02.935Z,1.90
2022-09-11T14:44:31.648Z,2.03
2022-09-11T14:46:58.966Z,1.38
2022-09-11T14:49:26.218Z,1.48
2022-09-11T14:51:54.990Z,1.58
2022-09-11T14:54:22.831Z,2.10
2022-09-11T14:56:50.315Z,1.92
2022-09-11T14:59:37.480Z,1.90
2022-09-11T15:02:10.110Z,2.10
2022-09-11T15:04:37.395Z,1.80
2022-09-11T15:07:06.812Z,2.25
2022-09-11T15:09:34.282Z,1.73
2022-09-11T15:12:01.643Z,1.95
2022-09-11T15:14:52.286Z,1.80
2022-09-11T15:17:18.236Z,1.98
2022-09-11T15:19:45.649Z,1.80
2022-09-11T15:22:13.111Z,1.60
2022-09-11T15:24:40.419Z,2.10
2022-09-11T15:27:07.794Z,1.95
2022-09-11T15:29:35.087Z,2.00
2022-09-11T15:32:03.435Z,2.13
2022-09-11T15:34:32.067Z,2.28
2022-09-11T15:36:59.547Z,2.63
2022-09-11T15:39:26.968Z,2.58
2022-09-11T15:41:55.356Z,2.00
2022-09-11T15:44:41.235Z,2.20
2022-09-11T15:47:08.475Z,2.47
2022-09-11T15:49:39.747Z,2.63
2022-09-11T15:52:06.991Z,2.30
2022-09-11T15:54:34.348Z,2.17
2022-09-11T15:57:01.610Z,1.85
2022-09-11T15:59:28.850Z,2.20
2022-09-11T16:01:56.159Z,2.28
2022-09-11T16:04:26.123Z,2.50
2022-09-11T16:06:55.143Z,1.75
2022-09-11T16:09:23.253Z,2.55
2022-09-11T16:11:50.690Z,2.15
2022-09-11T16:14:18.966Z,2.60
2022-09-11T16:16:46.320Z,1.97
2022-09-11T16:19:13.906Z,1.93
2022-09-11T16:21:41.230Z,2.60
2022-09-11T16:24:30.038Z,1.92
2022-09-11T16:26:59.101Z,2.00
2022-09-11T16:29:34.681Z,2.07
2022-09-11T16:32:14.224Z,1.73
2022-09-11T16:41:47.021Z,1.95
2022-09-11T18:29:32.588Z,2.57
2022-09-11T18:32:00.449Z,2.10
2022-09-11T18:34:28.164Z,3.33
2022-09-11T18:36:55.611Z,2.07
2022-09-11T18:39:23.042Z,2.17
2022-09-11T18:41:51.142Z,2.87
2022-09-11T18:44:20.019Z,2.73
2022-09-11T18:46:48.829Z,2.60
2022-09-11T18:49:16.774Z,2.50
2022-09-11T18:51:44.289Z,1.80
2022-09-11T18:54:12.563Z,2.07
2022-09-11T18:56:39.760Z,2.20
2022-09-11T18:59:07.016Z,2.50
2022-09-11T19:01:34.313Z,2.20
2022-09-11T19:04:06.406Z,2.20
2022-09-11T19:06:33.695Z,2.67
2022-09-11T19:09:00.947Z,2.33
2022-09-11T19:11:29.076Z,3.10
2022-09-11T19:13:57.160Z,2.70
2022-09-11T19:16:24.479Z,3.00
2022-09-11T19:18:51.687Z,2.60
2022-09-11T19:21:21.004Z,3.00
2022-09-11T19:23:48.799Z,2.70
2022-09-11T19:26:16.712Z,2.20
2022-09-11T19:28:56.863Z,3.00
2022-09-11T19:31:25.107Z,3.13
2022-09-11T19:33:52.362Z,2.67
2022-09-11T19:36:21.519Z,2.80
2022-09-11T19:39:11.767Z,2.87
2022-09-11T19:41:57.317Z,3.70
2022-09-11T19:44:24.546Z,3.57
2022-09-11T19:46:51.902Z,2.93
2022-09-11T19:49:19.350Z,3.20
2022-09-11T19:51:48.011Z,2.40
2022-09-11T19:54:15.335Z,2.80
2022-09-11T19:56:42.800Z,3.07
2022-09-11T19:59:10.525Z,3.20
2022-09-11T20:01:37.890Z,3.40
2022-09-11T20:04:05.576Z,3.27
2022-09-11T20:06:33.618Z,2.97
2022-09-11T20:11:50.547Z,3.27
2022-09-11T20:14:17.850Z,3.93
2022-09-11T20:16:45.053Z,3.17
2022-09-11T20:19:12.399Z,2.97
2022-09-11T20:21:40.824Z,3.00
2022-09-11T20:24:09.618Z,3.70
2022-09-11T20:26:37.282Z,3.37
2022-09-11T20:29:05.326Z,3.07
2022-09-11T20:31:33.645Z,3.23
2022-09-11T20:34:00.985Z,2.93
2022-09-11T20:36:28.323Z,3.00
2022-09-11T20:38:55.998Z,2.90
2022-09-11T20:41:25.151Z,3.67
2022-09-11T20:43:52.423Z,3.57
2022-09-11T20:46:19.785Z,3.17
2022-09-11T20:48:48.557Z,3.43
2022-09-11T20:51:15.758Z,3.00
2022-09-11T20:53:43.185Z,3.00
2022-09-11T20:56:11.007Z,2.97
2022-09-11T20:58:39.935Z,4.20
2022-09-11T21:01:07.954Z,2.90
2022-09-11T21:03:35.432Z,2.80
2022-09-11T21:06:06.197Z,3.97
2022-09-11T21:08:33.439Z,3.00
2022-09-11T21:11:02.288Z,3.53
2022-09-11T21:13:29.519Z,3.40
2022-09-11T21:15:58.180Z,4.13
2022-09-11T21:18:25.487Z,4.47
2022-09-11T21:20:56.390Z,4.23
2022-09-11T21:23:24.274Z,4.23
2022-09-11T21:25:52.831Z,4.37
2022-09-11T21:28:20.730Z,4.17
2022-09-11T21:30:48.044Z,4.70
2022-09-11T21:33:16.678Z,4.53
2022-09-11T21:35:43.925Z,4.17
2022-09-11T21:38:11.228Z,4.83
2022-09-11T21:40:38.477Z,4.57
2022-09-11T21:43:05.712Z,4.67
2022-09-11T21:45:32.938Z,4.80
2022-09-11T21:48:00.277Z,4.50
2022-09-11T21:50:29.068Z,4.83
2022-09-11T21:52:56.279Z,4.67
2022-09-11T21:55:23.596Z,5.07
2022-09-11T21:57:50.927Z,4.53
2022-09-11T22:00:18.279Z,4.57
2022-09-11T22:02:45.612Z,5.00
2022-09-11T22:05:12.807Z,4.60
2022-09-11T22:07:41.546Z,4.97
2022-09-11T22:10:09.473Z,5.47
2022-09-11T22:12:36.978Z,4.97
2022-09-11T22:15:04.479Z,5.07
2022-09-11T22:17:31.679Z,4.83
2022-09-11T22:19:59.043Z,5.40
2022-09-11T22:22:26.219Z,5.93
2022-09-11T22:24:54.799Z,4.83
2022-09-11T22:27:22.094Z,7.03
2022-09-11T22:29:49.375Z,5.90
2022-09-11T22:32:17.002Z,5.23
2022-09-11T22:34:44.235Z,5.93
2022-09-11T22:37:11.624Z,6.50
2022-09-11T22:39:39.012Z,6.50
2022-09-11T22:42:07.747Z,6.40
2022-09-11T22:44:34.931Z,6.00
2022-09-11T22:47:02.114Z,5.83
2022-09-11T22:49:29.434Z,6.30
2022-09-11T22:51:56.727Z,6.17
2022-09-11T22:54:23.938Z,6.40
2022-09-11T22:56:51.287Z,6.00
2022-09-11T22:59:20.254Z,6.63
2022-09-11T23:01:47.684Z,5.87
2022-09-11T23:04:15.083Z,6.70
2022-09-11T23:06:42.374Z,7.40
2022-09-11T23:09:10.856Z,6.37
2022-09-11T23:11:45.872Z,6.67
2022-09-11T23:14:14.702Z,7.17
2022-09-11T23:16:43.688Z,6.83
2022-09-11T23:19:12.621Z,7.17
2022-09-11T23:21:39.864Z,8.00
2022-09-11T23:24:25.573Z,8.80
2022-09-11T23:26:58.967Z,9.63
2022-09-11T23:29:26.455Z,9.20
2022-09-11T23:31:56.131Z,11.40
2022-09-11T23:34:23.324Z,8.83
2022-09-11T23:36:50.707Z,9.17
2022-09-11T23:39:17.883Z,8.80
2022-09-11T23:41:48.185Z,9.00
2022-09-11T23:44:15.451Z,7.70
2022-09-11T23:46:42.659Z,8.53
2022-09-11T23:49:12.374Z,8.30
2022-09-11T23:51:39.775Z,8.47
2022-09-11T23:54:19.331Z,7.87
2022-09-11T23:57:05.287Z,7.70
2022-09-11T23:59:35.852Z,8.30
